sensor_id;sensor_type;location;lat;lon;timestamp;pressure;altitude;pressure_sealevel;temperature;humidity
33422;BME280;19763;55.798;37.782;2022-12-18T00:01:37;146400.59;;;-3.76;93.04
33422;BME280;19763;55.798;37.782;2022-12-18T00:04:06;146360.09;;;-3.93;91.85
33422;BME280;19763;55.798;37.782;2022-12-18T00:06:33;146399.34;;;-3.77;92.16
33422;BME280;19763;55.798;37.782;2022-12-18T00:09:00;146415.84;;;-3.70;92.16
33422;BME280;19763;55.798;37.782;2022-12-18T00:11:28;146381.63;;;-3.84;90.98
33422;BME280;19763;55.798;37.782;2022-12-18T00:13:56;146366.44;;;-3.90;90.87
33422;BME280;19763;55.798;37.782;2022-12-18T00:16:24;146379.06;;;-3.85;91.33
33422;BME280;19763;55.798;37.782;2022-12-18T00:18:52;146336.00;;;-4.03;91.45
33422;BME280;19763;55.798;37.782;2022-12-18T00:21:19;146361.34;;;-3.92;91.72
33422;BME280;19763;55.798;37.782;2022-12-18T00:23:47;146374.03;;;-3.87;91.36
33422;BME280;19763;55.798;37.782;2022-12-18T00:26:21;146348.69;;;-3.97;91.62
33422;BME280;19763;55.798;37.782;2022-12-18T00:28:48;146390.47;;;-3.81;91.01
33422;BME280;19763;55.798;37.782;2022-12-18T00:31:16;146365.13;;;-3.91;90.85
33422;BME280;19763;55.798;37.782;2022-12-18T00:33:42;146377.81;;;-3.86;90.58
33422;BME280;19763;55.798;37.782;2022-12-18T00:36:28;146339.81;;;-4.01;89.48
33422;BME280;19763;55.798;37.782;2022-12-18T00:38:56;146380.38;;;-3.85;90.26
33422;BME280;19763;55.798;37.782;2022-12-18T00:41:22;146381.63;;;-3.84;89.80
33422;BME280;19763;55.798;37.782;2022-12-18T00:44:09;146387.97;;;-3.82;90.60
33422;BME280;19763;55.798;37.782;2022-12-18T00:46:34;146363.88;;;-3.91;90.63
33422;BME280;19763;55.798;37.782;2022-12-18T00:49:00;146389.22;;;-3.81;89.54
33422;BME280;19763;55.798;37.782;2022-12-18T00:51:26;146363.88;;;-3.91;89.13
33422;BME280;19763;55.798;37.782;2022-12-18T00:53:52;146374.03;;;-3.87;90.31
33422;BME280;19763;55.798;37.782;2022-12-18T00:56:18;146341.06;;;-4.01;89.52
33422;BME280;19763;55.798;37.782;2022-12-18T00:58:44;146351.19;;;-3.96;90.52
33422;BME280;19763;55.798;37.782;2022-12-18T01:03:55;146357.53;;;-3.94;89.60
33422;BME280;19763;55.798;37.782;2022-12-18T01:06:20;146374.03;;;-3.87;88.99
33422;BME280;19763;55.798;37.782;2022-12-18T01:08:46;146379.06;;;-3.85;89.21
33422;BME280;19763;55.798;37.782;2022-12-18T01:11:17;146337.25;;;-4.02;90.05
33422;BME280;19763;55.798;37.782;2022-12-18T01:13:43;146362.63;;;-3.92;89.83
33422;BME280;19763;55.798;37.782;2022-12-18T01:16:12;146289.16;;;-4.22;88.84
33422;BME280;19763;55.798;37.782;2022-12-18T01:18:38;146356.28;;;-3.94;90.08
33422;BME280;19763;55.798;37.782;2022-12-18T01:21:15;146348.69;;;-3.97;89.58
33422;BME280;19763;55.798;37.782;2022-12-18T01:23:41;146401.91;;;-3.76;89.22
33422;BME280;19763;55.798;37.782;2022-12-18T01:26:09;146384.16;;;-3.83;88.51
33422;BME280;19763;55.798;37.782;2022-12-18T01:28:36;146362.63;;;-3.92;88.40
33422;BME280;19763;55.798;37.782;2022-12-18T01:33:40;146367.69;;;-3.90;88.40
33422;BME280;19763;55.798;37.782;2022-12-18T01:36:06;146380.38;;;-3.85;88.20
33422;BME280;19763;55.798;37.782;2022-12-18T01:38:32;146398.09;;;-3.77;88.32
33422;BME280;19763;55.798;37.782;2022-12-18T01:40:59;146390.47;;;-3.81;87.84
33422;BME280;19763;55.798;37.782;2022-12-18T01:43:52;146353.75;;;-3.95;88.31
33422;BME280;19763;55.798;37.782;2022-12-18T01:46:21;146351.19;;;-3.96;87.03
33422;BME280;19763;55.798;37.782;2022-12-18T01:48:49;146323.31;;;-4.08;88.60
33422;BME280;19763;55.798;37.782;2022-12-18T01:51:16;146404.41;;;-3.75;87.58
33422;BME280;19763;55.798;37.782;2022-12-18T01:53:43;146372.72;;;-3.88;87.41
33422;BME280;19763;55.798;37.782;2022-12-18T01:56:13;146358.78;;;-3.93;87.89
33422;BME280;19763;55.798;37.782;2022-12-18T01:58:48;146415.84;;;-3.70;87.66
33422;BME280;19763;55.798;37.782;2022-12-18T02:01:15;146366.44;;;-3.90;86.57
33422;BME280;19763;55.798;37.782;2022-12-18T02:03:43;146313.19;;;-4.12;88.17
33422;BME280;19763;55.798;37.782;2022-12-18T02:06:15;146379.06;;;-3.85;88.98
33422;BME280;19763;55.798;37.782;2022-12-18T02:13:45;146318.28;;;-4.10;88.35
33422;BME280;19763;55.798;37.782;2022-12-18T02:19:15;146294.22;;;-4.20;88.12
33422;BME280;19763;55.798;37.782;2022-12-18T02:24:43;146315.72;;;-4.11;88.56
33422;BME280;19763;55.798;37.782;2022-12-18T02:27:13;146389.22;;;-3.81;88.45
33422;BME280;19763;55.798;37.782;2022-12-18T02:29:44;146361.34;;;-3.92;88.61
33422;BME280;19763;55.798;37.782;2022-12-18T02:32:15;146368.94;;;-3.89;87.56
33422;BME280;19763;55.798;37.782;2022-12-18T02:34:43;146394.31;;;-3.79;88.03
33422;BME280;19763;55.798;37.782;2022-12-18T02:37:13;146391.75;;;-3.80;87.29
33422;BME280;19763;55.798;37.782;2022-12-18T02:39:41;146422.19;;;-3.68;88.03
33422;BME280;19763;55.798;37.782;2022-12-18T02:42:08;146417.09;;;-3.70;87.06
33422;BME280;19763;55.798;37.782;2022-12-18T02:44:42;146347.41;;;-3.98;86.98
33422;BME280;19763;55.798;37.782;2022-12-18T02:47:12;146386.66;;;-3.82;87.79
33422;BME280;19763;55.798;37.782;2022-12-18T02:52:53;146453.88;;;-3.55;87.72
33422;BME280;19763;55.798;37.782;2022-12-18T02:55:27;146428.47;;;-3.65;85.86
33422;BME280;19763;55.798;37.782;2022-12-18T02:58:05;146418.34;;;-3.69;86.69
33422;BME280;19763;55.798;37.782;2022-12-18T03:00:51;146295.47;;;-4.19;86.86
33422;BME280;19763;55.798;37.782;2022-12-18T03:05:57;146360.09;;;-3.93;87.14
33422;BME280;19763;55.798;37.782;2022-12-18T03:08:28;146320.81;;;-4.09;87.17
33422;BME280;19763;55.798;37.782;2022-12-18T03:11:00;146310.69;;;-4.13;86.67
33422;BME280;19763;55.798;37.782;2022-12-18T03:13:33;146342.34;;;-4.00;87.20
33422;BME280;19763;55.798;37.782;2022-12-18T03:16:01;146315.72;;;-4.11;86.44
33422;BME280;19763;55.798;37.782;2022-12-18T03:18:36;146301.78;;;-4.17;87.98
33422;BME280;19763;55.798;37.782;2022-12-18T03:21:05;146323.31;;;-4.08;86.94
33422;BME280;19763;55.798;37.782;2022-12-18T03:23:36;146336.00;;;-4.03;87.94
33422;BME280;19763;55.798;37.782;2022-12-18T03:26:09;146341.06;;;-4.01;86.56
33422;BME280;19763;55.798;37.782;2022-12-18T03:28:39;146342.34;;;-4.00;86.29
33422;BME280;19763;55.798;37.782;2022-12-18T03:31:09;146355.00;;;-3.95;87.20
33422;BME280;19763;55.798;37.782;2022-12-18T03:33:42;146268.88;;;-4.30;87.02
33422;BME280;19763;55.798;37.782;2022-12-18T03:36:11;146336.00;;;-4.03;86.12
33422;BME280;19763;55.798;37.782;2022-12-18T03:38:37;146305.59;;;-4.15;87.80
33422;BME280;19763;55.798;37.782;2022-12-18T03:47:15;146338.56;;;-4.02;87.03
33422;BME280;19763;55.798;37.782;2022-12-18T03:49:52;146322.06;;;-4.08;87.23
33422;BME280;19763;55.798;37.782;2022-12-18T03:52:33;146313.19;;;-4.12;86.80
33422;BME280;19763;55.798;37.782;2022-12-18T03:55:01;146320.81;;;-4.09;87.85
33422;BME280;19763;55.798;37.782;2022-12-18T03:57:30;146287.88;;;-4.22;86.47
33422;BME280;19763;55.798;37.782;2022-12-18T04:00:01;146315.72;;;-4.11;86.73
33422;BME280;19763;55.798;37.782;2022-12-18T04:02:28;146301.78;;;-4.17;87.09
33422;BME280;19763;55.798;37.782;2022-12-18T04:04:59;146330.91;;;-4.05;86.74
33422;BME280;19763;55.798;37.782;2022-12-18T04:07:28;146265.09;;;-4.31;86.64
33422;BME280;19763;55.798;37.782;2022-12-18T04:09:56;146254.94;;;-4.36;87.68
33422;BME280;19763;55.798;37.782;2022-12-18T04:12:28;146252.41;;;-4.37;86.70
33422;BME280;19763;55.798;37.782;2022-12-18T04:14:54;146291.66;;;-4.21;87.67
33422;BME280;19763;55.798;37.782;2022-12-18T04:17:21;146304.34;;;-4.16;87.95
33422;BME280;19763;55.798;37.782;2022-12-18T04:19:46;146317.03;;;-4.10;86.15
33422;BME280;19763;55.798;37.782;2022-12-18T04:22:12;146289.16;;;-4.22;86.50
33422;BME280;19763;55.798;37.782;2022-12-18T04:24:38;146287.88;;;-4.22;86.90
33422;BME280;19763;55.798;37.782;2022-12-18T04:27:04;146241.03;;;-4.41;87.03
33422;BME280;19763;55.798;37.782;2022-12-18T04:29:29;146260.00;;;-4.34;87.93
33422;BME280;19763;55.798;37.782;2022-12-18T04:31:55;146289.16;;;-4.22;87.26
33422;BME280;19763;55.798;37.782;2022-12-18T04:34:21;146289.16;;;-4.22;86.77
33422;BME280;19763;55.798;37.782;2022-12-18T04:36:46;146304.34;;;-4.16;86.76
33422;BME280;19763;55.798;37.782;2022-12-18T04:39:12;146339.81;;;-4.01;86.51
33422;BME280;19763;55.798;37.782;2022-12-18T04:41:37;146285.31;;;-4.23;85.71
33422;BME280;19763;55.798;37.782;2022-12-18T04:44:03;146292.97;;;-4.20;86.57
33422;BME280;19763;55.798;37.782;2022-12-18T04:46:29;146320.81;;;-4.09;86.61
33422;BME280;19763;55.798;37.782;2022-12-18T04:48:55;146286.63;;;-4.23;86.03
33422;BME280;19763;55.798;37.782;2022-12-18T04:51:21;146325.88;;;-4.07;86.68
33422;BME280;19763;55.798;37.782;2022-12-18T04:53:46;146309.38;;;-4.13;87.53
33422;BME280;19763;55.798;37.782;2022-12-18T04:56:14;146289.16;;;-4.22;87.12
33422;BME280;19763;55.798;37.782;2022-12-18T04:58:42;146280.28;;;-4.25;87.85
33422;BME280;19763;55.798;37.782;2022-12-18T05:01:09;146313.19;;;-4.12;88.31
33422;BME280;19763;55.798;37.782;2022-12-18T05:03:35;146303.09;;;-4.16;87.90
33422;BME280;19763;55.798;37.782;2022-12-18T05:06:02;146265.09;;;-4.31;87.48
33422;BME280;19763;55.798;37.782;2022-12-18T05:08:27;146253.66;;;-4.36;88.22
33422;BME280;19763;55.798;37.782;2022-12-18T05:11:04;146232.13;;;-4.45;88.20
33422;BME280;19763;55.798;37.782;2022-12-18T05:13:30;146263.78;;;-4.32;89.28
33422;BME280;19763;55.798;37.782;2022-12-18T05:15:56;146196.69;;;-4.59;89.10
33422;BME280;19763;55.798;37.782;2022-12-18T05:18:23;146178.97;;;-4.66;89.36
33422;BME280;19763;55.798;37.782;2022-12-18T05:20:50;146157.44;;;-4.75;88.91
33422;BME280;19763;55.798;37.782;2022-12-18T05:23:16;146192.88;;;-4.61;89.36
33422;BME280;19763;55.798;37.782;2022-12-18T05:25:42;146199.22;;;-4.58;88.61
33422;BME280;19763;55.798;37.782;2022-12-18T05:28:07;146223.28;;;-4.48;89.38
33422;BME280;19763;55.798;37.782;2022-12-18T05:30:33;146166.34;;;-4.72;89.38
33422;BME280;19763;55.798;37.782;2022-12-18T05:33:19;146210.63;;;-4.54;88.39
33422;BME280;19763;55.798;37.782;2022-12-18T05:35:59;146209.38;;;-4.54;88.13
33422;BME280;19763;55.798;37.782;2022-12-18T05:38:26;146260.00;;;-4.34;88.01
33422;BME280;19763;55.798;37.782;2022-12-18T05:40:53;146218.19;;;-4.51;87.43
33422;BME280;19763;55.798;37.782;2022-12-18T05:43:19;146223.28;;;-4.48;87.34
33422;BME280;19763;55.798;37.782;2022-12-18T05:45:47;146220.75;;;-4.49;86.54
33422;BME280;19763;55.798;37.782;2022-12-18T05:48:13;146219.50;;;-4.50;86.86
33422;BME280;19763;55.798;37.782;2022-12-18T05:50:40;146228.34;;;-4.46;87.08
33422;BME280;19763;55.798;37.782;2022-12-18T05:53:06;146203.03;;;-4.57;87.46
33422;BME280;19763;55.798;37.782;2022-12-18T05:55:36;146239.72;;;-4.42;85.87
33422;BME280;19763;55.798;37.782;2022-12-18T05:58:03;146220.75;;;-4.49;86.39
33422;BME280;19763;55.798;37.782;2022-12-18T06:00:30;146237.22;;;-4.43;86.53
33422;BME280;19763;55.798;37.782;2022-12-18T06:02:57;146230.88;;;-4.45;86.30
33422;BME280;19763;55.798;37.782;2022-12-18T06:05:23;146195.44;;;-4.60;86.53
33422;BME280;19763;55.798;37.782;2022-12-18T06:07:48;146244.81;;;-4.40;86.89
33422;BME280;19763;55.798;37.782;2022-12-18T06:10:14;146244.81;;;-4.40;86.90
33422;BME280;19763;55.798;37.782;2022-12-18T06:12:39;146235.94;;;-4.43;86.37
33422;BME280;19763;55.798;37.782;2022-12-18T06:15:05;146189.09;;;-4.62;86.34
33422;BME280;19763;55.798;37.782;2022-12-18T06:17:32;146219.50;;;-4.50;85.89
33422;BME280;19763;55.798;37.782;2022-12-18T06:19:58;146242.28;;;-4.41;86.42
33422;BME280;19763;55.798;37.782;2022-12-18T06:22:24;146241.03;;;-4.41;86.67
33422;BME280;19763;55.798;37.782;2022-12-18T06:24:50;146265.09;;;-4.31;85.64
33422;BME280;19763;55.798;37.782;2022-12-18T06:27:16;146282.81;;;-4.24;86.08
33422;BME280;19763;55.798;37.782;2022-12-18T06:29:42;146222.00;;;-4.49;85.82
33422;BME280;19763;55.798;37.782;2022-12-18T06:32:07;146242.28;;;-4.41;86.29
33422;BME280;19763;55.798;37.782;2022-12-18T06:34:34;146210.63;;;-4.54;85.36
33422;BME280;19763;55.798;37.782;2022-12-18T06:36:59;146189.09;;;-4.62;85.71
33422;BME280;19763;55.798;37.782;2022-12-18T06:39:28;146211.91;;;-4.53;86.08
33422;BME280;19763;55.798;37.782;2022-12-18T06:41:53;146215.69;;;-4.52;86.20
33422;BME280;19763;55.798;37.782;2022-12-18T06:44:19;146175.16;;;-4.68;85.46
33422;BME280;19763;55.798;37.782;2022-12-18T06:46:45;146177.72;;;-4.67;86.00
33422;BME280;19763;55.798;37.782;2022-12-18T06:49:11;146244.81;;;-4.40;86.62
33422;BME280;19763;55.798;37.782;2022-12-18T06:51:36;146201.78;;;-4.57;84.58
33422;BME280;19763;55.798;37.782;2022-12-18T06:54:02;146176.41;;;-4.68;85.44
33422;BME280;19763;55.798;37.782;2022-12-18T06:56:28;146158.69;;;-4.75;84.41
33422;BME280;19763;55.798;37.782;2022-12-18T06:58:54;146215.69;;;-4.52;85.62
33422;BME280;19763;55.798;37.782;2022-12-18T07:01:20;146206.81;;;-4.55;84.81
33422;BME280;19763;55.798;37.782;2022-12-18T07:03:46;146219.50;;;-4.50;84.34
33422;BME280;19763;55.798;37.782;2022-12-18T07:06:17;146234.69;;;-4.44;84.52
33422;BME280;19763;55.798;37.782;2022-12-18T07:08:44;146254.94;;;-4.36;84.51
33422;BME280;19763;55.798;37.782;2022-12-18T07:11:09;146267.59;;;-4.30;84.16
33422;BME280;19763;55.798;37.782;2022-12-18T07:13:35;146271.44;;;-4.29;84.02
33422;BME280;19763;55.798;37.782;2022-12-18T07:16:30;146300.53;;;-4.17;82.99
33422;BME280;19763;55.798;37.782;2022-12-18T07:18:56;146310.69;;;-4.13;82.90
33422;BME280;19763;55.798;37.782;2022-12-18T07:21:23;146247.34;;;-4.39;82.76
33422;BME280;19763;55.798;37.782;2022-12-18T07:23:49;146328.41;;;-4.06;83.30
33422;BME280;19763;55.798;37.782;2022-12-18T07:26:17;146295.47;;;-4.19;83.15
33422;BME280;19763;55.798;37.782;2022-12-18T07:28:43;146281.53;;;-4.25;82.23
33422;BME280;19763;55.798;37.782;2022-12-18T07:31:17;146282.81;;;-4.24;82.62
33422;BME280;19763;55.798;37.782;2022-12-18T07:33:43;146287.88;;;-4.22;81.63
33422;BME280;19763;55.798;37.782;2022-12-18T07:36:10;146311.94;;;-4.12;82.45
33422;BME280;19763;55.798;37.782;2022-12-18T07:38:37;146308.13;;;-4.14;81.99
33422;BME280;19763;55.798;37.782;2022-12-18T07:43:28;146349.94;;;-3.97;81.95
33422;BME280;19763;55.798;37.782;2022-12-18T07:45:54;146277.72;;;-4.26;82.06
33422;BME280;19763;55.798;37.782;2022-12-18T07:48:20;146305.59;;;-4.15;82.07
33422;BME280;19763;55.798;37.782;2022-12-18T07:50:45;146309.38;;;-4.13;82.31
33422;BME280;19763;55.798;37.782;2022-12-18T07:53:11;146333.47;;;-4.04;81.49
33422;BME280;19763;55.798;37.782;2022-12-18T07:55:36;146330.91;;;-4.05;82.06
33422;BME280;19763;55.798;37.782;2022-12-18T07:58:03;146360.09;;;-3.93;81.41
33422;BME280;19763;55.798;37.782;2022-12-18T08:00:30;146368.94;;;-3.89;82.32
33422;BME280;19763;55.798;37.782;2022-12-18T08:02:56;146355.00;;;-3.95;81.57
33422;BME280;19763;55.798;37.782;2022-12-18T08:05:22;146363.88;;;-3.91;81.54
33422;BME280;19763;55.798;37.782;2022-12-18T08:07:47;146358.78;;;-3.93;81.29
33422;BME280;19763;55.798;37.782;2022-12-18T08:10:13;146358.78;;;-3.93;81.36
33422;BME280;19763;55.798;37.782;2022-12-18T08:12:39;146341.06;;;-4.01;82.32
33422;BME280;19763;55.798;37.782;2022-12-18T08:15:05;146333.47;;;-4.04;81.85
33422;BME280;19763;55.798;37.782;2022-12-18T08:17:31;146344.84;;;-3.99;82.61
33422;BME280;19763;55.798;37.782;2022-12-18T08:19:56;146376.56;;;-3.86;81.73
33422;BME280;19763;55.798;37.782;2022-12-18T08:22:22;146353.75;;;-3.95;81.26
33422;BME280;19763;55.798;37.782;2022-12-18T08:24:47;146363.88;;;-3.91;82.56
33422;BME280;19763;55.798;37.782;2022-12-18T08:27:13;146357.53;;;-3.94;82.47
33422;BME280;19763;55.798;37.782;2022-12-18T08:29:39;146374.03;;;-3.87;81.71
33422;BME280;19763;55.798;37.782;2022-12-18T08:32:04;146396.81;;;-3.78;82.19
33422;BME280;19763;55.798;37.782;2022-12-18T08:34:30;146381.63;;;-3.84;82.43
33422;BME280;19763;55.798;37.782;2022-12-18T08:36:55;146439.94;;;-3.60;82.83
33422;BME280;19763;55.798;37.782;2022-12-18T08:39:21;146453.88;;;-3.55;82.59
33422;BME280;19763;55.798;37.782;2022-12-18T08:41:47;146457.66;;;-3.53;83.15
33422;BME280;19763;55.798;37.782;2022-12-18T08:44:32;146463.97;;;-3.51;82.39
33422;BME280;19763;55.798;37.782;2022-12-18T08:47:07;146475.41;;;-3.46;82.31
33422;BME280;19763;55.798;37.782;2022-12-18T08:49:33;146442.44;;;-3.59;82.54
33422;BME280;19763;55.798;37.782;2022-12-18T08:52:00;146495.66;;;-3.38;82.73
33422;BME280;19763;55.798;37.782;2022-12-18T08:54:26;146475.41;;;-3.46;82.15
33422;BME280;19763;55.798;37.782;2022-12-18T08:56:52;146428.47;;;-3.65;82.15
33422;BME280;19763;55.798;37.782;2022-12-18T08:59:18;146495.66;;;-3.38;83.15
33422;BME280;19763;55.798;37.782;2022-12-18T09:01:45;146528.63;;;-3.24;83.46
33422;BME280;19763;55.798;37.782;2022-12-18T09:04:10;146543.84;;;-3.18;83.23
33422;BME280;19763;55.798;37.782;2022-12-18T09:06:36;146476.66;;;-3.45;81.36
33422;BME280;19763;55.798;37.782;2022-12-18T09:09:03;146477.91;;;-3.45;82.50
33422;BME280;19763;55.798;37.782;2022-12-18T09:11:29;146434.81;;;-3.62;83.41
33422;BME280;19763;55.798;37.782;2022-12-18T09:13:56;146496.94;;;-3.37;83.23
33422;BME280;19763;55.798;37.782;2022-12-18T09:16:22;146508.34;;;-3.33;82.73
33422;BME280;19763;55.798;37.782;2022-12-18T09:18:48;146504.53;;;-3.34;82.65
33422;BME280;19763;55.798;37.782;2022-12-18T09:21:23;146503.28;;;-3.35;82.65
33422;BME280;19763;55.798;37.782;2022-12-18T09:23:50;146518.50;;;-3.28;82.66
33422;BME280;19763;55.798;37.782;2022-12-18T09:26:16;146540.03;;;-3.20;82.61
33422;BME280;19763;55.798;37.782;2022-12-18T09:28:42;146538.78;;;-3.20;82.69
33422;BME280;19763;55.798;37.782;2022-12-18T09:31:08;146542.59;;;-3.19;82.87
33422;BME280;19763;55.798;37.782;2022-12-18T09:33:37;146479.19;;;-3.44;82.61
33422;BME280;19763;55.798;37.782;2022-12-18T09:36:04;146523.53;;;-3.26;83.33
33422;BME280;19763;55.798;37.782;2022-12-18T09:38:30;146513.44;;;-3.31;82.93
33422;BME280;19763;55.798;37.782;2022-12-18T09:43:51;146476.66;;;-3.45;82.26
33422;BME280;19763;55.798;37.782;2022-12-18T09:46:25;146483.00;;;-3.43;82.55
33422;BME280;19763;55.798;37.782;2022-12-18T09:48:55;146513.44;;;-3.31;82.89
33422;BME280;19763;55.798;37.782;2022-12-18T09:51:43;146555.22;;;-3.14;83.12
33422;BME280;19763;55.798;37.782;2022-12-18T09:54:17;146531.19;;;-3.23;83.18
33422;BME280;19763;55.798;37.782;2022-12-18T09:56:45;146523.53;;;-3.26;82.28
33422;BME280;19763;55.798;37.782;2022-12-18T10:01:48;146508.34;;;-3.33;82.71
33422;BME280;19763;55.798;37.782;2022-12-18T10:04:13;146537.47;;;-3.21;82.79
33422;BME280;19763;55.798;37.782;2022-12-18T10:06:46;146521.03;;;-3.27;82.98
33422;BME280;19763;55.798;37.782;2022-12-18T10:09:37;146493.16;;;-3.39;83.44
33422;BME280;19763;55.798;37.782;2022-12-18T10:17:32;146502.00;;;-3.35;83.30
33422;BME280;19763;55.798;37.782;2022-12-18T10:20:13;146532.44;;;-3.23;82.19
33422;BME280;19763;55.798;37.782;2022-12-18T10:25:34;146531.19;;;-3.23;82.14
33422;BME280;19763;55.798;37.782;2022-12-18T10:28:16;146553.97;;;-3.14;82.64
33422;BME280;19763;55.798;37.782;2022-12-18T10:30:43;146532.44;;;-3.23;81.80
33422;BME280;19763;55.798;37.782;2022-12-18T10:33:19;146505.78;;;-3.34;81.80
33422;BME280;19763;55.798;37.782;2022-12-18T10:35:45;146547.63;;;-3.17;83.56
33422;BME280;19763;55.798;37.782;2022-12-18T10:40:58;146585.69;;;-3.01;82.32
33422;BME280;19763;55.798;37.782;2022-12-18T10:46:02;146523.53;;;-3.26;82.63
33422;BME280;19763;55.798;37.782;2022-12-18T10:48:28;146538.78;;;-3.20;83.57
33422;BME280;19763;55.798;37.782;2022-12-18T10:50:55;146521.03;;;-3.27;83.89
33422;BME280;19763;55.798;37.782;2022-12-18T10:53:27;146546.38;;;-3.17;83.22
33422;BME280;19763;55.798;37.782;2022-12-18T10:55:55;146466.50;;;-3.50;84.18
33422;BME280;19763;55.798;37.782;2022-12-18T10:58:30;146194.13;;;-4.60;83.31
33422;BME280;19763;55.798;37.782;2022-12-18T11:01:15;146469.06;;;-3.49;84.24
33422;BME280;19763;55.798;37.782;2022-12-18T11:04:01;146422.19;;;-3.68;84.50
33422;BME280;19763;55.798;37.782;2022-12-18T11:06:27;146433.56;;;-3.63;83.87
33422;BME280;19763;55.798;37.782;2022-12-18T11:09:19;146495.66;;;-3.38;84.17
33422;BME280;19763;55.798;37.782;2022-12-18T11:11:53;146457.66;;;-3.53;84.34
33422;BME280;19763;55.798;37.782;2022-12-18T11:14:24;146450.03;;;-3.56;84.84
33422;BME280;19763;55.798;37.782;2022-12-18T11:16:51;146465.25;;;-3.50;85.38
33422;BME280;19763;55.798;37.782;2022-12-18T11:19:23;146489.34;;;-3.40;84.48
33422;BME280;19763;55.798;37.782;2022-12-18T11:21:51;146467.81;;;-3.49;84.41
33422;BME280;19763;55.798;37.782;2022-12-18T11:24:28;146498.19;;;-3.37;84.54
33422;BME280;19763;55.798;37.782;2022-12-18T11:26:57;146463.97;;;-3.51;84.58
33422;BME280;19763;55.798;37.782;2022-12-18T11:29:31;146484.25;;;-3.42;83.61
33422;BME280;19763;55.798;37.782;2022-12-18T11:40:46;146436.06;;;-3.62;84.11
33422;BME280;19763;55.798;37.782;2022-12-18T11:43:17;146433.56;;;-3.63;84.34
33422;BME280;19763;55.798;37.782;2022-12-18T11:45:55;146469.06;;;-3.49;84.88
33422;BME280;19763;55.798;37.782;2022-12-18T11:48:38;146474.09;;;-3.47;84.71
33422;BME280;19763;55.798;37.782;2022-12-18T11:51:13;146472.84;;;-3.47;83.93
33422;BME280;19763;55.798;37.782;2022-12-18T11:53:40;146475.41;;;-3.46;84.44
33422;BME280;19763;55.798;37.782;2022-12-18T11:59:29;146456.38;;;-3.54;85.37
33422;BME280;19763;55.798;37.782;2022-12-18T12:02:12;146490.59;;;-3.40;85.54
33422;BME280;19763;55.798;37.782;2022-12-18T12:08:01;146471.59;;;-3.48;84.99
33422;BME280;19763;55.798;37.782;2022-12-18T12:18:42;146471.59;;;-3.48;84.06
33422;BME280;19763;55.798;37.782;2022-12-18T12:26:44;146424.69;;;-3.67;84.73
33422;BME280;19763;55.798;37.782;2022-12-18T12:38:00;146460.16;;;-3.52;84.94
33422;BME280;19763;55.798;37.782;2022-12-18T12:40:31;146488.06;;;-3.41;85.05
33422;BME280;19763;55.798;37.782;2022-12-18T12:43:03;146410.75;;;-3.72;84.14
33422;BME280;19763;55.798;37.782;2022-12-18T12:48:07;146442.44;;;-3.59;84.33
33422;BME280;19763;55.798;37.782;2022-12-18T12:50:37;146448.78;;;-3.57;85.20
33422;BME280;19763;55.798;37.782;2022-12-18T12:53:07;146433.56;;;-3.63;84.35
33422;BME280;19763;55.798;37.782;2022-12-18T12:55:38;146409.50;;;-3.73;84.15
33422;BME280;19763;55.798;37.782;2022-12-18T12:58:13;146441.19;;;-3.60;85.08
33422;BME280;19763;55.798;37.782;2022-12-18T13:01:05;146363.88;;;-3.91;84.39
33422;BME280;19763;55.798;37.782;2022-12-18T13:08:55;146396.81;;;-3.78;85.31
33422;BME280;19763;55.798;37.782;2022-12-18T13:11:45;146427.22;;;-3.66;85.20
33422;BME280;19763;55.798;37.782;2022-12-18T13:14:37;146450.03;;;-3.56;85.19
33422;BME280;19763;55.798;37.782;2022-12-18T13:20:19;146461.47;;;-3.52;84.38
33422;BME280;19763;55.798;37.782;2022-12-18T13:22:48;146474.09;;;-3.47;84.86
33422;BME280;19763;55.798;37.782;2022-12-18T13:25:35;146448.78;;;-3.57;84.82
33422;BME280;19763;55.798;37.782;2022-12-18T13:41:14;146475.41;;;-3.46;84.43
33422;BME280;19763;55.798;37.782;2022-12-18T13:43:51;146434.81;;;-3.62;84.61
33422;BME280;19763;55.798;37.782;2022-12-18T13:51:44;146475.41;;;-3.46;84.58
33422;BME280;19763;55.798;37.782;2022-12-18T13:54:33;146425.97;;;-3.66;85.26
33422;BME280;19763;55.798;37.782;2022-12-18T13:56:59;146455.13;;;-3.54;84.81
33422;BME280;19763;55.798;37.782;2022-12-18T13:59:38;146425.97;;;-3.66;85.68
33422;BME280;19763;55.798;37.782;2022-12-18T14:02:16;146431.03;;;-3.64;84.98
33422;BME280;19763;55.798;37.782;2022-12-18T14:04:46;146432.28;;;-3.64;84.99
33422;BME280;19763;55.798;37.782;2022-12-18T14:07:18;146355.00;;;-3.95;84.90
33422;BME280;19763;55.798;37.782;2022-12-18T14:12:25;146448.78;;;-3.57;85.68
33422;BME280;19763;55.798;37.782;2022-12-18T14:15:32;146434.81;;;-3.62;85.17
33422;BME280;19763;55.798;37.782;2022-12-18T14:20:51;146427.22;;;-3.66;84.75
33422;BME280;19763;55.798;37.782;2022-12-18T14:23:36;146450.03;;;-3.56;85.20
33422;BME280;19763;55.798;37.782;2022-12-18T14:26:22;146450.03;;;-3.56;84.22
33422;BME280;19763;55.798;37.782;2022-12-18T14:28:48;146444.97;;;-3.58;83.63
33422;BME280;19763;55.798;37.782;2022-12-18T14:31:21;146467.81;;;-3.49;82.94
33422;BME280;19763;55.798;37.782;2022-12-18T14:33:47;146466.50;;;-3.50;82.45
33422;BME280;19763;55.798;37.782;2022-12-18T14:36:25;146400.59;;;-3.76;81.84
33422;BME280;19763;55.798;37.782;2022-12-18T14:38:55;146404.41;;;-3.75;82.83
33422;BME280;19763;55.798;37.782;2022-12-18T14:41:22;146384.16;;;-3.83;82.98
33422;BME280;19763;55.798;37.782;2022-12-18T14:43:49;146398.09;;;-3.77;82.87
33422;BME280;19763;55.798;37.782;2022-12-18T14:49:05;146363.88;;;-3.91;81.14
33422;BME280;19763;55.798;37.782;2022-12-18T14:51:48;146387.97;;;-3.82;82.64
33422;BME280;19763;55.798;37.782;2022-12-18T14:54:17;146394.31;;;-3.79;81.80
33422;BME280;19763;55.798;37.782;2022-12-18T14:56:46;146367.69;;;-3.90;81.41
33422;BME280;19763;55.798;37.782;2022-12-18T14:59:23;146322.06;;;-4.08;81.98